Elgin, Oregon
Current Conditions -  °F | °C
As of 1:15 AM on Monday 22 Dec 2014 (Local Time) from KLGD Reporting Station
Broken Clouds Broken Clouds  
Wind Chill: 39°   Ceiling: 4100
Heat Index: 43°   Visibility: 10mi
Dew Point: 34°   Wind: 6mph
Humidity: 70%   Direction: 290°WNW
Pressure: 30.08"   Gusts: NA
Location:  45.56°N, 117.92°W
Report Text: KLGD 220915Z AUTO 29005KT 10SM FEW023 SCT031 BKN041 06/01 A3008 RMK AO1 P0001
Loading
Personal Weather Stations






























Interactive Weather Map New forecast layout! Learn more

10-Day Weather Forecast

Advertisements
Track Severe Weather on mobile